General Aviation Weather

Text Reports

Enter one or more of the following location identifiers separated by a space:

Zip Code, Four-Character ICAO or Three-Character IATA airport codes.

METAR - Aviation Routine Weather Report
KVUJ - Albemarle, North Carolina
Updated at 7:55 AM GMT on January 31, 2015 (2:55 AM EST):
METAR KVUJ 310755Z AUTO 00000KT 10SM CLR M06/M09 A3037 RMK AO2 T10651092
TAF - Terminal Area Forecast
KVUJ - Albemarle, North Carolina
Updated at 7:55 AM GMT on January 31, 2015 (2:55 AM EST):
No TAF is currently available for this location.
Decoded:
No decoded TAF is available.
PIREP - Pilot Weather Report
KVUJ - Albemarle, North Carolina
Updated at 7:55 AM GMT on January 31, 2015 (2:55 AM EST):
No PIREP is currently available for this location.
AIRMET - Airmens Meteorological Information
KVUJ - Albemarle, North Carolina
Updated at 7:55 AM GMT on January 31, 2015 (2:55 AM EST):
No AIRMET is currently available for this location.
SIGMET - Significant Meteorological Information
KVUJ - Albemarle, North Carolina
Updated at 7:55 AM GMT on January 31, 2015 (2:55 AM EST):
No SIGMET is currently available for this location.
NOTAM - Notice to Airmen
KVUJ - Albemarle, North Carolina
Updated at 7:55 AM GMT on January 31, 2015 (2:55 AM EST):
No NOTAM is currently available for this location.
Forecast Area
KVUJ - Albemarle, North Carolina
Updated at 7:55 AM GMT on January 31, 2015 (2:55 AM EST):
No NOTAM is currently available for this location.
Aviation Weather Maps